Weather reports worldwide

Advertisment
Navacerrada, Spain (8215): temperature & dewpoint: 25.09.2020 00:00:00 - 01.10.2020 00:00:00 (CEST)Navacerrada, Spain (8215): wind speed & gusts: 25.09.2020 00:00:00 - 01.10.2020 00:00:00 (CEST)Navacerrada, Spain (8215): wind direction: 25.09.2020 00:00:00 - 01.10.2020 00:00:00 (CEST)Navacerrada, Spain (8215): visibility: 25.09.2020 00:00:00 - 01.10.2020 00:00:00 (CEST)Navacerrada, Spain (8215): precipitation: 25.09.2020 00:00:00 - 01.10.2020 00:00:00 (CEST)
Date & Time tt [°C] td [°C] ff [km/h] ff [kn] fx [km/h] fx [kn] dd vv [km] rr [mm]
01.10.2020 00:00:00 10,0 1,9 5 3 - - NNW 20 0,0
30.09.2020 23:00:00 10,3 1,1 5 3 - - NNW 20 -
30.09.2020 22:00:00 11,0 0,4 9 5 - - NW 20 0,0
30.09.2020 21:00:00 11,9 2,6 8 4 - - WNW 20 0,0
30.09.2020 20:00:00 14,0 4,6 4 2 - - W 10 -
30.09.2020 19:00:00 16,7 5,0 9 5 - - SW 20 0,0
30.09.2020 18:00:00 17,7 5,0 9 5 - - SSW 12 0,0
30.09.2020 17:00:00 18,6 4,7 11 6 - - SSW 20 -
30.09.2020 16:00:00 18,7 2,9 9 5 - - W 14 0,0
30.09.2020 15:00:00 18,7 4,1 4 2 - - SW 19 0,0
30.09.2020 14:00:00 17,7 2,8 4 2 - - WSW 20 -
30.09.2020 13:00:00 16,1 3,8 4 2 - - NE 20 0,0
30.09.2020 12:00:00 16,1 1,8 4 2 - - WNW 20 0,0
30.09.2020 11:00:00 14,7 -0,2 8 4 - - W 20 -
30.09.2020 10:00:00 13,0 0,0 4 2 - - W 20 0,0
30.09.2020 09:00:00 10,4 -2,6 2 1 - - WNW 20 0,0
30.09.2020 08:00:00 10,4 -2,6 4 2 - - W 10 -
30.09.2020 07:00:00 10,1 -1,3 4 2 - - NNW 20 0,0
30.09.2020 06:00:00 10,3 -1,8 9 5 - - NNW 20 0,0
30.09.2020 05:00:00 10,2 -1,5 8 4 - - NNE 20 -
30.09.2020 04:00:00 10,0 -1,1 9 5 - - NNE 20 0,0
30.09.2020 03:00:00 10,1 -0,7 9 5 - - NE 20 0,0
30.09.2020 02:00:00 10,7 -1,1 9 5 - - N 20 -
30.09.2020 01:00:00 11,0 -0,8 8 4 - - N 20 0,0
30.09.2020 00:00:00 10,4 -1,0 4 2 - - SSE 20 0,0
29.09.2020 23:00:00 11,0 -0,8 5 3 - - WNW 20 -
29.09.2020 22:00:00 11,4 -1,1 4 2 - - N 20 0,0
29.09.2020 21:00:00 11,9 0,9 9 5 - - SSW 20 0,0
29.09.2020 20:00:00 13,5 -0,9 8 4 - - WNW 25 -
29.09.2020 19:00:00 16,0 0,5 8 4 - - W 20 0,0
29.09.2020 18:00:00 16,4 0,5 8 4 - - WNW 11 0,0
29.09.2020 17:00:00 16,6 0,7 5 3 - - NNW 35 -
29.09.2020 16:00:00 16,6 0,7 11 6 - - NNW 20 0,0
29.09.2020 15:00:00 16,7 2,3 5 3 - - NW 20 0,0
29.09.2020 14:00:00 16,4 0,9 9 5 - - NW 35 -
29.09.2020 13:00:00 16,0 0,9 8 4 - - NW 20 0,0
29.09.2020 12:00:00 15,5 0,1 8 4 - - SW 20 0,0
29.09.2020 11:00:00 13,8 -4,0 9 5 - - S 25 -
29.09.2020 10:00:00 10,2 -1,2 9 5 - - SSE 20 0,0
29.09.2020 09:00:00 8,6 0,6 9 5 - - SE 20 0,0
29.09.2020 08:00:00 8,4 -2,0 18 10 - - SSE 10 -
29.09.2020 07:00:00 8,5 -5,0 11 6 - - S 20 0,0
29.09.2020 06:00:00 9,0 -2,9 9 5 - - S 20 0,0
29.09.2020 05:00:00 8,9 2,0 22 12 - - S 20 -
29.09.2020 04:00:00 9,3 -0,3 22 12 - - SSE 17 0,0
29.09.2020 03:00:00 10,2 -1,8 18 10 - - SSE 20 0,0
29.09.2020 02:00:00 10,9 -10,0 5 3 - - SSW 20 -
29.09.2020 01:00:00 11,2 -17,2 4 2 - - WSW 20 0,0
29.09.2020 00:00:00 11,0 -11,8 5 3 - - NW 20 0,0
28.09.2020 23:00:00 10,8 -12,0 4 2 - - NNW 20 -
28.09.2020 22:00:00 10,3 -12,4 8 4 - - NNW 20 0,0
28.09.2020 21:00:00 9,2 -2,4 4 2 - - NNW 20 0,0
28.09.2020 20:00:00 9,6 -1,5 9 5 - - N 20 -
28.09.2020 19:00:00 12,6 -1,0 9 5 - - WNW 20 0,0
28.09.2020 18:00:00 13,5 1,2 8 4 - - NW 20 0,0
28.09.2020 17:00:00 15,2 1,3 4 2 - - NW 30 -
28.09.2020 16:00:00 15,4 1,5 4 2 - - W 20 0,0
28.09.2020 15:00:00 14,2 -0,7 8 4 - - W 20 0,0
28.09.2020 14:00:00 12,4 0,8 8 4 - - NW 30 -
28.09.2020 13:00:00 11,5 1,1 11 6 - - NW 20 0,0
28.09.2020 12:00:00 11,4 0,8 5 3 - - NNW 20 0,0
28.09.2020 11:00:00 9,4 -2,3 11 6 - - N 20 -
28.09.2020 10:00:00 7,4 -2,6 15 8 - - N 20 0,0
28.09.2020 09:00:00 6,8 -9,2 21 11 - - N 20 0,0
28.09.2020 08:00:00 6,5 -5,8 22 12 - - N 20 -
28.09.2020 07:00:00 5,6 -5,7 16 9 - - N 20 0,0
28.09.2020 06:00:00 5,4 -3,2 16 9 - - N 20 0,0
28.09.2020 05:00:00 5,3 -2,5 21 11 - - N 20 -
28.09.2020 04:00:00 5,4 -2,4 18 10 - - N 20 0,0
28.09.2020 03:00:00 5,5 -2,1 21 11 - - N 20 0,0
28.09.2020 02:00:00 5,3 -1,2 15 8 - - N 20 -
28.09.2020 01:00:00 5,3 -1,4 15 8 - - N 20 0,0
28.09.2020 00:00:00 5,5 -1,0 15 8 - - N 20 0,0
27.09.2020 23:00:00 5,3 -2,5 15 8 - - N 20 -
27.09.2020 22:00:00 4,9 -0,3 16 9 - - N 20 0,0
27.09.2020 21:00:00 4,7 0,8 18 10 - - N 20 0,0
27.09.2020 20:00:00 5,4 2,4 18 10 - - N 20 -
27.09.2020 19:00:00 6,6 3,0 11 6 - - N 20 0,0
27.09.2020 18:00:00 7,2 3,6 13 7 - - N 20 0,0
27.09.2020 17:00:00 8,0 3,8 15 8 - - NNW 30 -
27.09.2020 16:00:00 7,6 4,9 16 9 - - N 20 0,0
27.09.2020 15:00:00 6,7 6,1 15 8 - - NNW 20 0,0
27.09.2020 14:00:00 5,8 5,8 8 4 - - NNW 20 -
27.09.2020 13:00:00 6,4 6,4 9 5 - - NNE 18 0,0
27.09.2020 12:00:00 5,6 5,6 15 8 - - N 0,2 0,0
27.09.2020 11:00:00 4,7 4,7 22 12 - - N 0,6 -
27.09.2020 10:00:00 4,7 4,7 24 13 - - N 0,1 0,2
27.09.2020 09:00:00 4,9 4,9 18 10 - - N 0,1 0,4
27.09.2020 08:00:00 5,3 5,3 22 12 - - N 0,2 -
27.09.2020 07:00:00 5,4 5,4 24 13 - - N 0,1 1,0
27.09.2020 06:00:00 5,4 5,4 28 15 - - NNW 0,1 1,0
27.09.2020 05:00:00 5,4 5,4 29 16 - - NNW 0,1 -
27.09.2020 04:00:00 5,6 5,6 29 16 76 41 NNW - 0,0
27.09.2020 03:00:00 5,8 5,8 34 18 78 42 NNW - 0,0
27.09.2020 02:00:00 5,8 5,8 28 15 - - NNW - -
27.09.2020 01:00:00 5,9 5,9 28 15 - - NNW 0,1 0,0
27.09.2020 00:00:00 6,0 6,0 22 12 - - NNW 0,1 0,0
26.09.2020 23:00:00 6,1 6,1 24 13 - - NNW 0,1 -
26.09.2020 22:00:00 6,2 6,2 18 10 - - NNW 0,1 0,0
26.09.2020 21:00:00 6,3 5,1 18 10 - - NW 20 0,0
26.09.2020 20:00:00 6,6 4,3 15 8 - - NNW 15 -
26.09.2020 19:00:00 6,7 4,2 16 9 - - NNW 20 0,0
26.09.2020 18:00:00 7,2 4,2 13 7 - - NNW 20 0,0
26.09.2020 17:00:00 7,2 3,4 13 7 - - N 20 -
26.09.2020 16:00:00 7,6 3,8 16 9 - - N 20 0,0
26.09.2020 15:00:00 7,4 3,6 16 9 - - N 20 0,0
26.09.2020 14:00:00 6,0 4,0 13 7 - - N 20 -
26.09.2020 13:00:00 5,4 3,6 15 8 - - N 20 0,0
26.09.2020 12:00:00 3,1 2,4 16 9 - - N 20 0,0
26.09.2020 11:00:00 1,7 1,3 21 11 - - N 15 -
26.09.2020 10:00:00 0,3 0,2 24 13 - - N 20 0,0
26.09.2020 09:00:00 -0,4 -0,4 21 11 - - N 20 0,0
26.09.2020 08:00:00 -0,3 -0,3 22 12 - - NNE 10 -
26.09.2020 07:00:00 -0,3 -0,3 21 11 - - NNE 19 0,0
26.09.2020 06:00:00 -0,3 -0,3 22 12 - - NNE 20 0,0
26.09.2020 05:00:00 -0,2 -0,2 22 12 - - N 20 -
26.09.2020 04:00:00 -0,1 -0,1 21 11 - - N 20 0,0
26.09.2020 03:00:00 0,5 0,5 21 11 - - NNE 18 0,0
26.09.2020 02:00:00 0,7 0,7 21 11 - - N 20 -
26.09.2020 01:00:00 1,2 1,2 22 12 - - N 13 0,0
26.09.2020 00:00:00 2,1 1,4 18 10 - - N 20 0,0
25.09.2020 23:00:00 2,7 0,9 24 13 - - NNW 20 -
25.09.2020 22:00:00 3,0 0,7 21 11 - - NNW 20 0,0
25.09.2020 21:00:00 3,0 0,2 18 10 - - NNW 20 0,0
25.09.2020 20:00:00 3,9 0,8 22 12 - - NNW 30 -
25.09.2020 19:00:00 5,0 0,7 26 14 - - NNW 20 0,0
25.09.2020 18:00:00 5,7 1,0 24 13 - - NNW 20 0,0
25.09.2020 17:00:00 5,1 1,0 28 15 - - N 30 -
25.09.2020 16:00:00 5,9 1,8 29 16 - - NNW 20 0,0
25.09.2020 15:00:00 5,2 1,1 26 14 - - NNW 20 0,0
25.09.2020 14:00:00 4,8 1,8 28 15 - - NNW 20 -
25.09.2020 13:00:00 3,2 1,6 28 15 - - NNW 20 0,0
25.09.2020 12:00:00 1,1 1,1 28 15 - - NNW 18 0,0
25.09.2020 11:00:00 0,6 0,6 28 15 - - NNW 0,2 -
25.09.2020 10:00:00 0,2 0,2 28 15 76 41 NNW 0,1 0,0
25.09.2020 09:00:00 0,4 0,4 28 15 81 44 NNW 0,2 0,0
25.09.2020 08:00:00 0,8 0,8 28 15 - - NNW 0,2 -
25.09.2020 07:00:00 1,1 1,1 26 14 - - NW 0,2 0,0
25.09.2020 06:00:00 1,6 1,6 22 12 - - NW 16 0,0
25.09.2020 05:00:00 2,4 2,4 21 11 - - NW 0,6 -
25.09.2020 04:00:00 2,8 2,8 21 11 - - NW 0,2 0,0
25.09.2020 03:00:00 3,5 3,5 18 10 - - NW 0,1 0,0
25.09.2020 02:00:00 3,8 3,8 18 10 - - NW 10 -
25.09.2020 01:00:00 4,1 4,1 16 9 - - NW 19 0,0
25.09.2020 00:00:00 4,3 3,6 16 9 - - NW 20 0,0

tt = temperature
td = dewpoint
ff = wind speed
fx = gusts
dd = wind direction
vv = visibility
rr = precipitation

Next stations